createdAt,value
2023-05-11T00:00:31.044Z,37.93
2023-05-11T00:01:31.115Z,37.92
2023-05-11T00:02:31.244Z,37.96
2023-05-11T00:03:31.204Z,37.92
2023-05-11T00:04:31.172Z,37.92
2023-05-11T00:05:31.254Z,37.88
2023-05-11T00:06:31.274Z,37.92
2023-05-11T00:07:31.316Z,37.91
2023-05-11T00:08:31.391Z,37.96
2023-05-11T00:09:31.374Z,37.96
2023-05-11T00:10:31.413Z,37.94
2023-05-11T00:11:31.469Z,37.93
2023-05-11T00:12:31.528Z,37.91
2023-05-11T00:13:31.542Z,37.92
2023-05-11T00:14:31.560Z,37.93
2023-05-11T00:15:31.636Z,37.91
2023-05-11T00:16:31.767Z,37.93
2023-05-11T00:17:31.742Z,37.93
2023-05-11T00:18:31.716Z,37.92
2023-05-11T00:19:31.782Z,37.93
2023-05-11T00:20:31.785Z,37.92
2023-05-11T00:21:31.849Z,37.94
2023-05-11T00:22:31.870Z,37.90
2023-05-11T00:23:31.978Z,37.94
2023-05-11T00:24:31.944Z,37.94
2023-05-11T00:25:32.049Z,37.95
2023-05-11T00:26:32.052Z,37.97
2023-05-11T00:27:32.067Z,37.93
2023-05-11T00:28:32.204Z,37.93
2023-05-11T00:29:32.136Z,37.94
2023-05-11T00:30:32.231Z,37.89
2023-05-11T00:31:32.287Z,37.89
2023-05-11T00:32:32.320Z,37.95
2023-05-11T00:33:32.284Z,37.92
2023-05-11T00:34:32.355Z,37.92
2023-05-11T00:35:32.410Z,37.90
2023-05-11T00:36:32.413Z,37.89
2023-05-11T00:37:32.433Z,37.92
2023-05-11T00:38:32.487Z,37.96
2023-05-11T00:39:32.516Z,37.91
2023-05-11T00:40:32.670Z,37.95
2023-05-11T00:41:32.612Z,37.90
2023-05-11T00:42:32.622Z,37.93
2023-05-11T00:43:32.667Z,37.97
2023-05-11T00:44:32.662Z,37.89
2023-05-11T00:45:32.736Z,37.95
2023-05-11T00:46:32.806Z,37.92
2023-05-11T00:47:32.830Z,37.91
2023-05-11T00:48:32.869Z,37.89
2023-05-11T00:49:32.875Z,37.94
2023-05-11T00:50:32.918Z,37.91
2023-05-11T00:51:32.996Z,37.94
2023-05-11T00:52:33.027Z,37.94
2023-05-11T00:53:33.040Z,38.00
2023-05-11T00:54:33.033Z,37.96
2023-05-11T00:55:33.100Z,37.91
2023-05-11T00:56:33.139Z,37.94
2023-05-11T00:57:33.157Z,37.92
2023-05-11T00:58:33.257Z,37.90
2023-05-11T00:59:33.297Z,37.92
2023-05-11T01:00:33.326Z,37.93
2023-05-11T01:01:33.343Z,37.98
2023-05-11T01:02:33.435Z,37.93
2023-05-11T01:03:33.404Z,37.95
2023-05-11T01:04:33.411Z,37.96
2023-05-11T01:05:33.500Z,37.96
2023-05-11T01:06:33.530Z,37.97
2023-05-11T01:07:33.584Z,37.97
2023-05-11T01:08:33.609Z,37.94
2023-05-11T01:09:33.619Z,37.97
2023-05-11T01:10:33.710Z,37.94
2023-05-11T01:11:33.786Z,37.97
2023-05-11T01:12:33.778Z,37.93
2023-05-11T01:13:33.794Z,37.93
2023-05-11T01:14:33.839Z,37.94
2023-05-11T01:15:33.971Z,37.92
2023-05-11T01:16:33.967Z,37.93
2023-05-11T01:17:33.979Z,37.97
2023-05-11T01:18:33.996Z,37.93
2023-05-11T01:19:34.074Z,37.94
2023-05-11T01:20:34.115Z,37.93
2023-05-11T01:21:34.157Z,37.96
2023-05-11T01:22:34.213Z,37.94
2023-05-11T01:23:34.279Z,37.94
2023-05-11T01:24:34.289Z,37.95
2023-05-11T01:25:34.364Z,37.98
2023-05-11T01:26:34.387Z,37.94
2023-05-11T01:27:34.442Z,37.98
2023-05-11T01:28:34.477Z,37.97
2023-05-11T01:29:34.535Z,37.96
2023-05-11T01:30:34.585Z,37.97
2023-05-11T01:31:34.663Z,37.97
2023-05-11T01:32:36.740Z,37.96
2023-05-11T01:33:34.706Z,37.92
2023-05-11T01:34:34.760Z,37.93
2023-05-11T01:35:34.793Z,37.92
2023-05-11T01:36:34.877Z,37.94
2023-05-11T01:37:34.937Z,37.95
2023-05-11T01:38:34.922Z,37.94
2023-05-11T01:39:34.990Z,37.94
2023-05-11T01:40:35.041Z,37.94
2023-05-11T01:41:35.092Z,37.93
2023-05-11T01:42:35.129Z,37.93
2023-05-11T01:43:35.160Z,37.95
2023-05-11T01:44:35.217Z,37.96
2023-05-11T01:45:35.283Z,37.94
2023-05-11T01:46:35.369Z,37.95
2023-05-11T01:47:35.391Z,37.98
2023-05-11T01:48:35.428Z,37.96
2023-05-11T01:49:35.417Z,37.97
2023-05-11T01:50:35.479Z,37.91
2023-05-11T01:51:35.522Z,37.94
2023-05-11T01:52:35.585Z,37.95
2023-05-11T01:53:35.669Z,37.99
2023-05-11T01:54:35.672Z,38.03
2023-05-11T01:55:35.721Z,37.97
2023-05-11T01:56:35.761Z,37.95
2023-05-11T01:57:35.836Z,37.95
2023-05-11T01:58:35.824Z,37.99
2023-05-11T01:59:35.879Z,37.98
2023-05-11T02:00:35.906Z,38.00
2023-05-11T02:01:35.985Z,37.94
2023-05-11T02:02:36.070Z,37.99
2023-05-11T02:03:36.203Z,38.00
2023-05-11T02:04:36.073Z,37.94
2023-05-11T02:05:36.809Z,37.96
2023-05-11T02:06:36.179Z,37.94
2023-05-11T02:07:36.213Z,37.98
2023-05-11T02:08:36.284Z,37.95
2023-05-11T02:09:36.286Z,37.93
2023-05-11T02:10:36.343Z,37.92
2023-05-11T02:11:36.359Z,37.94
2023-05-11T02:12:36.443Z,37.95
2023-05-11T02:13:36.454Z,37.96
2023-05-11T02:14:36.590Z,37.96
2023-05-11T02:15:36.549Z,37.95
2023-05-11T02:16:36.609Z,37.96
2023-05-11T02:17:36.735Z,37.94
2023-05-11T02:18:36.753Z,37.97
2023-05-11T02:19:36.750Z,37.98
2023-05-11T02:20:36.778Z,37.97
2023-05-11T02:21:36.821Z,37.98
2023-05-11T02:22:38.146Z,37.91
2023-05-11T02:23:36.931Z,37.93
2023-05-11T02:24:36.920Z,37.97
2023-05-11T02:25:37.001Z,37.96
2023-05-11T02:26:37.008Z,37.99
2023-05-11T02:27:37.070Z,38.00
2023-05-11T02:28:37.144Z,37.93
2023-05-11T02:29:37.184Z,37.94
2023-05-11T02:30:37.230Z,37.93
2023-05-11T02:31:37.312Z,37.94
2023-05-11T02:32:37.341Z,37.96
2023-05-11T02:33:37.350Z,37.96
2023-05-11T02:34:37.380Z,37.97
2023-05-11T02:35:37.459Z,37.96
2023-05-11T02:36:37.450Z,37.97
2023-05-11T02:37:37.520Z,37.96
2023-05-11T02:38:37.585Z,37.98
2023-05-11T02:39:37.601Z,38.00
2023-05-11T02:40:37.640Z,38.01
2023-05-11T02:41:37.670Z,38.00
2023-05-11T02:42:37.758Z,37.97
2023-05-11T02:43:37.763Z,38.00
2023-05-11T02:44:37.819Z,37.97
2023-05-11T02:45:37.883Z,38.00
2023-05-11T02:46:37.924Z,37.99
2023-05-11T02:47:37.982Z,38.00
2023-05-11T02:48:37.962Z,37.96
2023-05-11T02:49:38.025Z,37.97
2023-05-11T02:50:38.084Z,37.94
2023-05-11T02:51:38.125Z,37.97
2023-05-11T02:52:38.179Z,38.00
2023-05-11T02:53:38.234Z,37.99
2023-05-11T02:54:38.251Z,38.05
2023-05-11T02:55:38.323Z,37.99
2023-05-11T02:56:38.396Z,38.00
2023-05-11T02:57:38.410Z,37.96
2023-05-11T02:58:38.469Z,37.99
2023-05-11T02:59:38.510Z,38.01
2023-05-11T03:00:38.607Z,37.97
2023-05-11T03:01:38.691Z,38.06
2023-05-11T03:02:38.705Z,37.99
2023-05-11T03:03:38.852Z,38.00
2023-05-11T03:04:38.787Z,38.05
2023-05-11T03:05:38.810Z,38.03
2023-05-11T03:06:38.841Z,38.02
2023-05-11T03:07:38.897Z,37.98
2023-05-11T03:08:38.957Z,38.00
2023-05-11T03:09:39.004Z,37.99
2023-05-11T03:10:39.032Z,38.02
2023-05-11T03:11:39.110Z,38.00
2023-05-11T03:12:39.218Z,38.04
2023-05-11T03:13:39.197Z,38.05
2023-05-11T03:14:39.272Z,38.03
2023-05-11T03:15:39.249Z,38.07
2023-05-11T03:16:39.425Z,37.99
2023-05-11T03:17:39.380Z,38.01
2023-05-11T03:18:39.462Z,37.99
2023-05-11T03:19:39.497Z,37.99
2023-05-11T03:20:39.528Z,38.00
2023-05-11T03:21:39.557Z,38.03
2023-05-11T03:22:39.637Z,38.03
2023-05-11T03:23:39.652Z,38.00
2023-05-11T03:24:39.699Z,38.00
2023-05-11T03:25:39.770Z,38.00
2023-05-11T03:26:39.792Z,37.99
2023-05-11T03:27:39.880Z,37.99
2023-05-11T03:28:39.880Z,38.04
2023-05-11T03:29:39.913Z,38.03
2023-05-11T03:30:39.967Z,37.94
2023-05-11T03:31:40.123Z,37.98
2023-05-11T03:32:40.203Z,38.00
2023-05-11T03:33:40.134Z,38.02
2023-05-11T03:34:40.180Z,37.99
2023-05-11T03:35:40.227Z,38.02
2023-05-11T03:36:40.297Z,38.00
2023-05-11T03:37:40.353Z,38.01
2023-05-11T03:38:40.358Z,38.05
2023-05-11T03:39:40.447Z,38.03
2023-05-11T03:40:40.470Z,38.01
2023-05-11T03:41:40.511Z,38.01
2023-05-11T03:42:40.655Z,38.04
2023-05-11T03:43:40.643Z,38.04
2023-05-11T03:44:40.693Z,38.04
2023-05-11T03:45:40.729Z,38.06
2023-05-11T03:46:40.795Z,38.01
2023-05-11T03:47:40.871Z,38.02
2023-05-11T03:48:40.866Z,38.01
2023-05-11T03:49:40.921Z,38.04
2023-05-11T03:50:40.946Z,38.02
2023-05-11T03:51:41.025Z,38.03
2023-05-11T03:52:41.059Z,38.05
2023-05-11T03:53:41.107Z,38.01
2023-05-11T03:54:41.159Z,38.02
2023-05-11T03:55:41.239Z,37.99
2023-05-11T03:56:41.283Z,37.98
2023-05-11T03:57:41.357Z,37.98
2023-05-11T03:58:41.412Z,38.02
2023-05-11T03:59:41.444Z,38.04
2023-05-11T04:00:41.461Z,38.02
2023-05-11T04:01:41.544Z,38.01
2023-05-11T04:02:41.682Z,38.01
2023-05-11T04:03:42.584Z,38.04
2023-05-11T04:04:41.725Z,37.96
2023-05-11T04:05:41.769Z,37.86
2023-05-11T04:06:41.815Z,37.75
2023-05-11T04:07:41.870Z,37.67
2023-05-11T04:08:41.906Z,37.70
2023-05-11T04:09:41.994Z,37.62
2023-05-11T04:10:42.012Z,37.61
2023-05-11T04:11:42.074Z,37.48
2023-05-11T04:12:42.166Z,37.37
2023-05-11T04:13:42.236Z,37.30
2023-05-11T04:14:42.281Z,37.22
2023-05-11T04:15:42.332Z,37.20
2023-05-11T04:16:42.457Z,37.25
2023-05-11T04:17:42.489Z,37.18
2023-05-11T04:18:42.500Z,37.08
2023-05-11T04:19:42.485Z,37.05
2023-05-11T04:20:42.524Z,36.94
2023-05-11T04:21:42.586Z,36.92
2023-05-11T04:22:42.598Z,36.91
2023-05-11T04:23:42.648Z,36.89
2023-05-11T04:24:42.684Z,36.89
2023-05-11T04:25:42.711Z,36.77
2023-05-11T04:26:42.755Z,36.75
2023-05-11T04:27:42.755Z,36.74
2023-05-11T04:28:42.795Z,36.69
2023-05-11T04:29:42.776Z,36.69
2023-05-11T04:30:42.782Z,36.66
2023-05-11T04:31:42.859Z,36.59
2023-05-11T04:32:42.852Z,36.64
2023-05-11T04:33:42.858Z,36.63
2023-05-11T04:34:42.830Z,36.66
2023-05-11T04:35:42.843Z,36.65
2023-05-11T04:36:42.843Z,36.63
2023-05-11T04:37:42.847Z,36.69
2023-05-11T04:38:42.908Z,36.70
2023-05-11T04:39:42.927Z,36.67
2023-05-11T04:40:42.871Z,36.66
2023-05-11T04:41:42.916Z,36.67
2023-05-11T04:42:42.947Z,36.67
2023-05-11T04:43:42.993Z,36.65
2023-05-11T04:44:43.026Z,36.67
2023-05-11T04:45:43.079Z,36.65
2023-05-11T04:46:43.217Z,36.64
2023-05-11T04:47:43.208Z,36.64
2023-05-11T04:48:43.262Z,36.62
2023-05-11T04:49:43.283Z,36.62
2023-05-11T04:50:43.327Z,36.62
2023-05-11T04:51:43.351Z,36.62
2023-05-11T04:52:43.408Z,36.63
2023-05-11T04:53:43.443Z,36.63
2023-05-11T04:54:43.480Z,36.64
2023-05-11T04:55:43.563Z,36.63
2023-05-11T04:56:43.596Z,36.64
2023-05-11T04:57:43.637Z,36.64
2023-05-11T04:58:43.699Z,36.65
2023-05-11T04:59:43.774Z,36.65
2023-05-11T05:00:43.844Z,36.65
2023-05-11T05:01:43.835Z,36.64
2023-05-11T05:02:43.953Z,36.64
2023-05-11T05:03:44.448Z,36.67
2023-05-11T05:04:44.029Z,36.65
2023-05-11T05:05:44.111Z,36.67
2023-05-11T05:06:44.159Z,36.69
2023-05-11T05:07:44.185Z,36.66
2023-05-11T05:08:44.243Z,36.68
2023-05-11T05:09:45.510Z,36.68
2023-05-11T05:10:44.361Z,36.68
2023-05-11T05:11:44.419Z,36.67
2023-05-11T05:12:44.497Z,36.67
2023-05-11T05:13:44.543Z,36.69
2023-05-11T05:14:44.560Z,36.69
2023-05-11T05:15:44.627Z,36.68
2023-05-11T05:16:44.729Z,36.70
2023-05-11T05:17:44.802Z,36.70
2023-05-11T05:18:44.908Z,36.70
2023-05-11T05:19:44.855Z,36.71
2023-05-11T05:20:44.904Z,36.73
2023-05-11T05:21:44.965Z,36.70
2023-05-11T05:22:45.035Z,36.69
2023-05-11T05:23:45.056Z,36.70
2023-05-11T05:24:45.141Z,36.69
2023-05-11T05:25:45.173Z,36.72
2023-05-11T05:26:45.197Z,36.69
2023-05-11T05:27:45.266Z,36.75
2023-05-11T05:28:45.306Z,36.76
2023-05-11T05:29:45.382Z,36.74
2023-05-11T05:30:45.481Z,36.76
2023-05-11T05:31:45.531Z,36.82
2023-05-11T05:32:45.590Z,36.84
2023-05-11T05:33:45.525Z,36.93
2023-05-11T05:34:45.561Z,37.13
2023-05-11T05:35:45.643Z,37.51
2023-05-11T05:36:45.681Z,37.52
2023-05-11T05:37:45.758Z,37.88
2023-05-11T05:38:45.801Z,37.74
2023-05-11T05:39:48.253Z,37.81
2023-05-11T05:40:46.082Z,37.68
2023-05-11T05:41:46.150Z,37.56
2023-05-11T05:42:46.140Z,37.63
2023-05-11T05:43:46.257Z,37.82
2023-05-11T05:44:46.431Z,37.93
2023-05-11T05:45:46.442Z,37.97
2023-05-11T05:46:46.483Z,37.87
2023-05-11T05:47:46.475Z,37.95
2023-05-11T05:48:46.492Z,37.99
2023-05-11T05:49:46.560Z,38.05
2023-05-11T05:50:47.000Z,38.04
2023-05-11T05:51:46.688Z,38.11
2023-05-11T05:52:46.750Z,38.27
2023-05-11T05:53:46.777Z,38.48
2023-05-11T05:54:46.818Z,38.69
2023-05-11T05:55:46.937Z,38.78
2023-05-11T05:56:46.915Z,38.81
2023-05-11T05:57:46.961Z,38.76
2023-05-11T05:58:47.032Z,38.84
2023-05-11T05:59:47.038Z,38.74
2023-05-11T06:00:47.084Z,38.91
2023-05-11T06:01:47.148Z,38.85
2023-05-11T06:02:47.296Z,38.82
2023-05-11T06:03:47.381Z,38.96
2023-05-11T06:04:47.384Z,39.07
2023-05-11T06:05:47.292Z,38.85
2023-05-11T06:06:47.315Z,38.98
2023-05-11T06:07:58.079Z,39.07
2023-05-11T06:08:48.376Z,39.04
2023-05-11T06:09:47.414Z,39.23
2023-05-11T06:10:47.347Z,39.03
2023-05-11T06:11:47.316Z,39.10
2023-05-11T06:12:47.332Z,39.19
2023-05-11T06:13:47.335Z,38.90
2023-05-11T06:14:47.338Z,38.98
2023-05-11T06:15:47.423Z,39.14
2023-05-11T06:16:47.359Z,38.95
2023-05-11T06:17:47.363Z,38.86
2023-05-11T06:18:47.339Z,38.73
2023-05-11T06:19:47.326Z,39.05
2023-05-11T06:20:47.328Z,38.88
2023-05-11T06:21:47.286Z,38.72
2023-05-11T06:22:47.291Z,38.55
2023-05-11T06:23:47.308Z,38.47
2023-05-11T06:24:47.258Z,38.50
2023-05-11T06:25:47.236Z,38.39
2023-05-11T06:26:47.221Z,38.42
2023-05-11T06:27:47.238Z,38.45
2023-05-11T06:28:47.232Z,38.53
2023-05-11T06:29:47.252Z,38.63
2023-05-11T06:30:47.242Z,38.50
2023-05-11T06:31:47.295Z,38.43
2023-05-11T06:32:47.364Z,38.37
2023-05-11T06:33:47.267Z,38.32
2023-05-11T06:34:47.484Z,38.33
2023-05-11T06:35:47.458Z,38.64
2023-05-11T06:36:47.282Z,38.71
2023-05-11T06:37:47.454Z,38.26
2023-05-11T06:38:47.458Z,38.21
2023-05-11T06:39:47.470Z,38.30
2023-05-11T06:40:47.449Z,38.85
2023-05-11T06:41:47.464Z,38.03
2023-05-11T06:42:47.471Z,38.61
2023-05-11T06:43:47.488Z,38.46
2023-05-11T06:44:47.378Z,38.39
2023-05-11T06:45:47.413Z,38.57
2023-05-11T06:46:47.359Z,38.76
2023-05-11T06:47:47.506Z,38.34
2023-05-11T06:48:47.371Z,38.25
2023-05-11T06:49:47.318Z,38.13
2023-05-11T06:50:47.341Z,38.36
2023-05-11T06:51:47.329Z,38.17
2023-05-11T06:52:47.343Z,38.11
2023-05-11T06:53:47.481Z,38.02
2023-05-11T06:54:47.370Z,38.14
2023-05-11T06:55:47.341Z,38.02
2023-05-11T06:56:47.365Z,38.10
2023-05-11T06:57:47.357Z,38.12
2023-05-11T06:58:47.452Z,37.90
2023-05-11T06:59:47.421Z,37.84
2023-05-11T07:00:47.547Z,37.90
2023-05-11T07:01:47.506Z,38.02
2023-05-11T07:02:47.619Z,38.02
2023-05-11T07:03:47.625Z,38.00
2023-05-11T07:04:47.668Z,37.97
2023-05-11T07:05:47.798Z,37.99
2023-05-11T07:06:47.795Z,37.66
2023-05-11T07:07:47.866Z,37.52
2023-05-11T07:08:47.905Z,37.43
2023-05-11T07:09:47.947Z,37.42
2023-05-11T07:10:48.026Z,37.45
2023-05-11T07:11:48.094Z,37.60
2023-05-11T07:12:48.142Z,37.69
2023-05-11T07:13:48.182Z,37.56
2023-05-11T07:14:48.450Z,37.54
2023-05-11T07:15:48.275Z,37.70
2023-05-11T07:16:48.397Z,37.65
2023-05-11T07:17:48.425Z,37.68
2023-05-11T07:18:48.435Z,37.63
2023-05-11T07:19:48.496Z,37.59
2023-05-11T07:20:48.545Z,37.64
2023-05-11T07:21:48.552Z,37.69
2023-05-11T07:22:48.668Z,37.78
2023-05-11T07:23:48.728Z,37.68
2023-05-11T07:24:48.765Z,37.64
2023-05-11T07:25:48.786Z,37.59
2023-05-11T07:26:48.857Z,37.48
2023-05-11T07:27:48.896Z,37.52
2023-05-11T07:28:48.992Z,37.44
2023-05-11T07:29:49.488Z,37.46
2023-05-11T07:30:49.087Z,37.45
2023-05-11T07:31:49.210Z,37.58
2023-05-11T07:32:49.212Z,37.34
2023-05-11T07:33:49.215Z,37.40
2023-05-11T07:34:49.266Z,36.79
2023-05-11T07:35:49.312Z,37.03
2023-05-11T07:36:49.320Z,35.00
2023-05-11T07:37:49.340Z,34.15
2023-05-11T07:38:49.369Z,33.38
2023-05-11T07:39:49.400Z,33.94
2023-05-11T07:40:49.452Z,34.50
2023-05-11T07:41:49.557Z,34.90
2023-05-11T07:42:49.502Z,35.01
2023-05-11T07:43:49.530Z,35.07
2023-05-11T07:44:49.562Z,35.45
2023-05-11T07:45:49.631Z,35.48
2023-05-11T07:46:49.706Z,35.62
2023-05-11T07:47:49.775Z,35.57
2023-05-11T07:48:55.228Z,35.69
2023-05-11T07:49:50.775Z,35.70
2023-05-11T07:50:49.784Z,35.71
2023-05-11T07:51:49.770Z,35.89
2023-05-11T07:52:49.794Z,35.84
2023-05-11T07:53:49.772Z,35.81
2023-05-11T07:54:49.790Z,35.90
2023-05-11T07:55:49.790Z,35.88
2023-05-11T07:56:49.766Z,35.91
2023-05-11T07:57:49.762Z,36.01
2023-05-11T07:58:49.705Z,35.79
2023-05-11T07:59:49.785Z,35.82
2023-05-11T08:00:49.682Z,36.08
2023-05-11T08:01:49.808Z,36.02
2023-05-11T08:02:49.785Z,35.94
2023-05-11T08:03:49.713Z,35.82
2023-05-11T08:04:49.726Z,35.98
2023-05-11T08:05:49.661Z,36.03
2023-05-11T08:06:49.652Z,35.95
2023-05-11T08:07:49.673Z,35.97
2023-05-11T08:08:49.649Z,36.01
2023-05-11T08:09:49.648Z,36.16
2023-05-11T08:10:49.697Z,35.88
2023-05-11T08:11:49.770Z,35.87
2023-05-11T08:12:49.767Z,35.84
2023-05-11T08:13:49.828Z,35.98
2023-05-11T08:14:49.889Z,35.89
2023-05-11T08:15:49.970Z,36.01
2023-05-11T08:16:50.067Z,35.98
2023-05-11T08:17:50.150Z,35.79
2023-05-11T08:18:50.179Z,35.82
2023-05-11T08:19:50.226Z,35.72
2023-05-11T08:20:50.240Z,35.84
2023-05-11T08:21:50.281Z,35.64
2023-05-11T08:22:50.341Z,35.76
2023-05-11T08:23:50.419Z,35.60
2023-05-11T08:24:50.466Z,35.68
2023-05-11T08:25:50.578Z,35.91
2023-05-11T08:26:50.603Z,34.68
2023-05-11T08:27:50.643Z,34.27
2023-05-11T08:28:50.653Z,32.39
2023-05-11T08:29:50.704Z,31.57
2023-05-11T08:30:50.729Z,30.76
2023-05-11T08:31:50.880Z,30.87
2023-05-11T08:32:58.543Z,31.68
2023-05-11T08:33:51.858Z,33.13
2023-05-11T08:34:50.829Z,35.29
2023-05-11T08:35:50.775Z,36.45
2023-05-11T08:36:50.806Z,38.25
2023-05-11T08:37:50.784Z,40.17
2023-05-11T08:38:51.104Z,40.96
2023-05-11T08:39:50.722Z,40.58
2023-05-11T08:40:50.778Z,40.00
2023-05-11T08:41:50.755Z,39.55
2023-05-11T08:42:50.712Z,39.01
2023-05-11T08:43:50.749Z,38.63
2023-05-11T08:44:50.770Z,38.44
2023-05-11T08:45:50.984Z,38.49
2023-05-11T08:47:01.359Z,38.53
2023-05-11T08:47:51.887Z,38.42
2023-05-11T08:48:50.819Z,38.46
2023-05-11T08:49:51.032Z,38.45
2023-05-11T08:50:50.770Z,38.45
2023-05-11T08:51:50.758Z,38.32
2023-05-11T08:52:50.792Z,38.12
2023-05-11T08:53:50.756Z,38.08
2023-05-11T08:54:50.768Z,38.02
2023-05-11T08:55:50.777Z,38.00
2023-05-11T08:56:50.780Z,37.93
2023-05-11T08:57:50.782Z,37.78
2023-05-11T08:58:50.760Z,37.72
2023-05-11T08:59:50.734Z,37.57
2023-05-11T09:00:50.732Z,37.56
2023-05-11T09:01:50.858Z,37.42
2023-05-11T09:02:50.769Z,37.48
2023-05-11T09:03:50.725Z,37.45
2023-05-11T09:04:50.741Z,37.31
2023-05-11T09:05:50.826Z,37.25
2023-05-11T09:06:50.787Z,37.23
2023-05-11T09:07:50.870Z,37.23
2023-05-11T09:08:50.906Z,37.17
2023-05-11T09:09:50.979Z,37.03
2023-05-11T09:10:50.982Z,36.89
2023-05-11T09:11:51.019Z,36.89
2023-05-11T09:12:51.085Z,36.80
2023-05-11T09:13:51.101Z,36.94
2023-05-11T09:14:51.162Z,36.75
2023-05-11T09:15:51.148Z,36.77
2023-05-11T09:16:51.178Z,37.09
2023-05-11T09:17:51.192Z,37.20
2023-05-11T09:18:51.285Z,37.24
2023-05-11T09:19:51.144Z,37.26
2023-05-11T09:20:51.152Z,37.37
2023-05-11T09:21:51.146Z,37.42
2023-05-11T09:22:51.195Z,37.16
2023-05-11T09:23:51.269Z,37.16
2023-05-11T09:24:51.247Z,37.00
2023-05-11T09:25:51.298Z,37.00
2023-05-11T09:26:51.327Z,36.90
2023-05-11T09:27:51.349Z,37.07
2023-05-11T09:29:52.377Z,36.99
2023-05-11T09:30:51.432Z,37.13
2023-05-11T09:31:51.499Z,37.03
2023-05-11T09:32:51.457Z,37.10
2023-05-11T09:33:51.411Z,37.11
2023-05-11T09:34:51.463Z,37.07
2023-05-11T09:35:51.422Z,37.19
2023-05-11T09:36:51.394Z,37.14
2023-05-11T09:37:51.412Z,37.13
2023-05-11T09:40:51.432Z,36.66
2023-05-11T09:41:52.517Z,36.56
2023-05-11T09:42:51.357Z,36.50
2023-05-11T09:43:51.339Z,36.45
2023-05-11T09:44:51.342Z,36.41
2023-05-11T09:45:51.349Z,36.31
2023-05-11T09:46:51.381Z,36.21
2023-05-11T09:47:51.476Z,36.13
2023-05-11T09:48:51.344Z,36.06
2023-05-11T09:49:51.353Z,35.97
2023-05-11T09:50:51.427Z,35.88
2023-05-11T09:51:51.517Z,35.88
2023-05-11T09:52:51.512Z,35.78
2023-05-11T09:53:51.614Z,35.80
2023-05-11T09:54:51.750Z,35.71
2023-05-11T09:55:51.733Z,35.70
2023-05-11T09:56:51.811Z,35.60
2023-05-11T09:57:51.804Z,35.60
2023-05-11T09:58:51.863Z,35.55
2023-05-11T09:59:51.827Z,35.53
2023-05-11T10:00:51.904Z,35.46
2023-05-11T10:01:51.947Z,35.33
2023-05-11T10:02:52.025Z,35.35
2023-05-11T10:03:52.251Z,35.20
2023-05-11T10:04:52.061Z,35.21
2023-05-11T10:05:52.065Z,35.17
2023-05-11T10:06:52.142Z,35.23
2023-05-11T10:07:52.136Z,35.13
2023-05-11T10:08:52.195Z,35.17
2023-05-11T10:09:52.202Z,35.01
2023-05-11T10:10:52.197Z,35.02
2023-05-11T10:11:52.224Z,34.94
2023-05-11T10:12:52.264Z,34.90
2023-05-11T10:13:52.273Z,34.92
2023-05-11T10:14:52.274Z,34.93
2023-05-11T10:15:52.367Z,34.90
2023-05-11T10:16:52.336Z,34.89
2023-05-11T10:17:52.440Z,34.89
2023-05-11T10:18:52.523Z,34.82
2023-05-11T10:19:52.568Z,34.86
2023-05-11T10:20:52.585Z,34.82
2023-05-11T10:21:52.739Z,34.85
2023-05-11T10:22:52.688Z,34.88
2023-05-11T10:23:52.802Z,34.81
2023-05-11T10:24:52.837Z,34.78
2023-05-11T10:25:52.928Z,34.77
2023-05-11T10:26:52.925Z,34.78
2023-05-11T10:27:52.987Z,34.74
2023-05-11T10:28:53.046Z,34.73
2023-05-11T10:29:53.152Z,34.71
2023-05-11T10:30:53.164Z,34.73
2023-05-11T10:31:53.331Z,34.72
2023-05-11T10:32:53.422Z,34.70
2023-05-11T10:33:53.301Z,34.65
2023-05-11T10:34:53.392Z,34.65
2023-05-11T10:35:54.160Z,34.67
2023-05-11T10:36:53.455Z,34.64
2023-05-11T10:37:53.502Z,34.61
2023-05-11T10:38:53.572Z,34.64
2023-05-11T10:39:53.633Z,34.66
2023-05-11T10:40:53.644Z,34.66
2023-05-11T10:41:53.683Z,34.66
2023-05-11T10:42:53.714Z,34.63
2023-05-11T10:43:53.760Z,34.61
2023-05-11T10:44:53.818Z,34.60
2023-05-11T10:45:53.844Z,34.64
2023-05-11T10:46:53.890Z,34.58
2023-05-11T10:47:53.990Z,34.60
2023-05-11T10:48:53.950Z,34.60
2023-05-11T10:49:53.969Z,34.58
2023-05-11T10:50:54.045Z,34.57
2023-05-11T10:51:54.078Z,34.55
2023-05-11T10:52:54.091Z,34.56
2023-05-11T10:53:54.198Z,34.49
2023-05-11T10:54:54.262Z,34.47
2023-05-11T10:55:54.250Z,34.52
2023-05-11T10:56:54.271Z,34.45
2023-05-11T10:57:54.261Z,34.46
2023-05-11T10:58:54.318Z,34.48
2023-05-11T10:59:54.315Z,34.52
2023-05-11T11:00:54.479Z,34.43
2023-05-11T11:01:54.412Z,34.42
2023-05-11T11:02:54.488Z,34.45
2023-05-11T11:03:54.465Z,34.42
2023-05-11T11:04:54.507Z,34.43
2023-05-11T11:05:54.521Z,34.40
2023-05-11T11:06:54.509Z,34.41
2023-05-11T11:07:54.519Z,34.43
2023-05-11T11:08:54.556Z,34.38
2023-05-11T11:09:54.624Z,34.35
2023-05-11T11:10:54.664Z,34.41
2023-05-11T11:11:54.614Z,34.38
2023-05-11T11:12:54.710Z,34.78
2023-05-11T11:13:54.788Z,34.80
2023-05-11T11:14:54.726Z,34.78
2023-05-11T11:15:54.840Z,35.02
2023-05-11T11:16:54.781Z,35.17
2023-05-11T11:17:54.883Z,35.38
2023-05-11T11:18:54.862Z,35.58
2023-05-11T11:19:54.816Z,35.66
2023-05-11T11:20:54.856Z,35.62
2023-05-11T11:21:54.885Z,35.66
2023-05-11T11:22:55.082Z,35.77
2023-05-11T11:23:54.914Z,35.77
2023-05-11T11:24:54.996Z,35.89
2023-05-11T11:25:55.004Z,35.77
2023-05-11T11:26:55.012Z,36.22
2023-05-11T11:27:55.039Z,35.72
2023-05-11T11:28:55.099Z,35.60
2023-05-11T11:29:55.054Z,35.57
2023-05-11T11:30:55.106Z,35.41
2023-05-11T11:31:55.147Z,35.28
2023-05-11T11:32:55.179Z,35.36
2023-05-11T11:33:55.150Z,35.47
2023-05-11T11:34:55.163Z,35.32
2023-05-11T11:35:55.196Z,35.30
2023-05-11T11:36:55.230Z,35.29
2023-05-11T11:37:55.251Z,35.42
2023-05-11T11:38:55.314Z,35.39
2023-05-11T11:40:00.404Z,35.44
2023-05-11T11:40:56.321Z,35.38
2023-05-11T11:41:55.262Z,35.51
2023-05-11T11:42:55.295Z,35.45
2023-05-11T11:43:55.256Z,35.46
2023-05-11T11:44:55.235Z,35.42
2023-05-11T11:45:55.273Z,35.54
2023-05-11T11:46:55.291Z,35.46
2023-05-11T11:47:55.314Z,35.52
2023-05-11T11:48:55.279Z,35.44
2023-05-11T11:49:55.323Z,35.47
2023-05-11T11:50:55.209Z,35.51
2023-05-11T11:51:55.240Z,35.50
2023-05-11T11:52:55.234Z,35.49
2023-05-11T11:53:55.245Z,35.33
2023-05-11T11:54:55.186Z,35.23
2023-05-11T11:55:55.180Z,35.19
2023-05-11T11:56:55.273Z,35.11
2023-05-11T11:57:55.199Z,34.91
2023-05-11T11:58:55.280Z,34.90
2023-05-11T11:59:55.239Z,34.81
2023-05-11T12:00:55.736Z,34.83
2023-05-11T12:01:55.627Z,34.78
2023-05-11T12:02:55.357Z,34.66
2023-05-11T12:03:55.446Z,34.69
2023-05-11T12:04:55.302Z,34.64
2023-05-11T12:05:55.330Z,34.69
2023-05-11T12:06:55.312Z,34.67
2023-05-11T12:07:55.274Z,34.58
2023-05-11T12:08:55.285Z,34.69
2023-05-11T12:09:55.334Z,34.67
2023-05-11T12:10:55.300Z,34.39
2023-05-11T12:11:55.338Z,34.44
2023-05-11T12:12:55.304Z,34.42
2023-05-11T12:13:55.286Z,34.43
2023-05-11T12:14:55.275Z,34.36
2023-05-11T12:15:55.296Z,34.38
2023-05-11T12:16:55.488Z,34.52
2023-05-11T12:17:55.411Z,34.59
2023-05-11T12:18:55.346Z,34.37
2023-05-11T12:19:55.321Z,34.20
2023-05-11T12:20:55.342Z,34.20
2023-05-11T12:21:55.323Z,34.54
2023-05-11T12:22:55.381Z,34.31
2023-05-11T12:23:55.368Z,34.03
2023-05-11T12:24:55.381Z,34.00
2023-05-11T12:25:55.389Z,33.97
2023-05-11T12:26:55.400Z,33.98
2023-05-11T12:27:55.452Z,33.91
2023-05-11T12:28:55.372Z,33.78
2023-05-11T12:29:55.391Z,33.76
2023-05-11T12:30:55.402Z,33.90
2023-05-11T12:31:55.404Z,33.76
2023-05-11T12:32:56.871Z,32.06
2023-05-11T12:33:55.377Z,32.09
2023-05-11T12:34:55.456Z,32.50
2023-05-11T12:35:55.461Z,33.17
2023-05-11T12:36:56.295Z,33.09
2023-05-11T12:37:55.567Z,33.47
2023-05-11T12:38:55.580Z,33.58
2023-05-11T12:39:55.665Z,33.61
2023-05-11T12:40:55.617Z,33.58
2023-05-11T12:41:55.683Z,33.62
2023-05-11T12:42:55.677Z,33.68
2023-05-11T12:43:55.731Z,33.59
2023-05-11T12:44:55.773Z,33.54
2023-05-11T12:45:55.786Z,33.50
2023-05-11T12:46:55.739Z,33.48
2023-05-11T12:47:55.797Z,33.50
2023-05-11T12:48:56.886Z,33.48
2023-05-11T12:49:55.995Z,33.51
2023-05-11T12:50:55.961Z,33.50
2023-05-11T12:51:56.010Z,33.44
2023-05-11T12:52:55.997Z,33.44
2023-05-11T12:53:55.964Z,33.50
2023-05-11T12:54:57.138Z,33.43
2023-05-11T12:55:56.010Z,33.41